KMGW

Morgantown Municipal-Walter L Bill Hart Field Airport

Morgantown, West Virginia, USA
METAR KMGW 212253Z 18005KT 10SM FEW024 FEW042 SCT100 24/22 A2986 RMK AO2 LTG DSNT E AND SE RAB40E52 SLP101 P0000 T02440217
Observed Flight Rules
Aug-21 @ 22:53 UTC (52 minutes ago) Visual Flight Rules
Wind Visibility Clouds
180° at 5 knots 10 miles
  • Few at 2,400' AGL
  • Few at 4,200' AGL
  • Scattered at 10,000' AGL
Temperatures Readings Precipitation
Current 24°C / 75°F
Dewpoint 22°C / 72°F
Humidity 89%
Altimeter 29.86" Hg
Pressure 1010.1 hPa
Elevation 378
Current Rain 0.005
METAR KMGW 212253Z 18005KT 10SM FEW024 FEW042 SCT100 24/22 A2986 RMK AO2 LTG DSNT E AND SE RAB40E52 SLP101 P0000 T02440217
Observed Flight Rules
Aug-21 @ 22:53 UTC
(52 minutes ago)
VFR
Wind Visibility
180° at 5 knots 10 miles
Clouds
  • Few at 2,400' AGL
  • Few at 4,200' AGL
  • Scattered at 10,000' AGL
Temperature Dewpoint
24°C / 75°F 22°C / 72°F
Humidity Altimeter Pressure
89% 29.86" Hg 1010.1 hPa
Current Rain
0.005